South Aberdeen, Washington
Current Conditions -  °F | °C
As of 6:53 PM on Thursday 27 Nov 2014 (Local Time) from KHQM Reporting Station
Haze Haze  
Wind Chill: 56°   Ceiling: 1100
Heat Index: 56°   Visibility: 6mi
Dew Point: 54°   Wind: 17mph
Humidity: 93%   Direction: 190°S
Pressure: 29.77"   Gusts: NA
Location:  47.1445°N, 123.771°W
Report Text: KHQM 280253Z AUTO 19015KT 6SM BR BKN011 OVC027 13/12 A2977 RMK AO2 PK WND 21026/0230 RAB29E46 SLP083 P0001 60006 T01330122 58007
Loading
Personal Weather Stations






























Interactive Weather Map New forecast layout! Learn more

10-Day Weather Forecast

Advertisements
Track Severe Weather on mobile